K.pluto — 3EYQ3 — position and weather

sailwx.info

Track history (hours):
 
Tides and Currents Weather Stations Pressure Air Temp Water Temp Dewpoint Dewpoint Depression Visibility Wind Speed Wind Dir Waves Ship Positions

K.pluto

Last reported at 2018-May-15 14:17 UTC. Time now 2018-May-23 20:27 UTC.
Position N 41°15' E 139°53'.
Warning: this ship's position is 8 days out of date.

Length 170 m; draft 6.1 m.

Type: Cargo ship. MMSI: 373504000.

Date/timePositionNaut miles runAvg speedWind from/ knotsBaromVisibWave heightAir tempDewpointWater temp
2018-May-15 14:17N 41°15' E 139°53'311.1
2018-May-15 14:00N 41°14' E 139°57'7 9.8
2018-May-15 13:17N 41°16' E 140°06'510.2
2018-May-15 12:49N 41°18' E 140°11'410.2
2018-May-15 12:27N 41°21' E 140°15'4 9.2
2018-May-15 11:59N 41°23' E 140°20'4 8.8
2018-May-15 11:30N 41°25' E 140°25'4 7.8
2018-May-15 11:00N 41°27' E 140°29'4 7.3
2018-May-15 10:30N 41°29' E 140°33'5 9.3
2018-May-15 10:00N 41°32' E 140°38'4 8.7
2018-May-15 09:30N 41°34' E 140°43'4 7.5
2018-May-15 09:00N 41°36' E 140°48'4 8.2
2018-May-15 08:30N 41°38' E 140°53'5 9.0
2018-May-15 08:00N 41°38' E 140°59'4 8.1
2018-May-15 07:30N 41°38' E 141°04'5 9.3
2018-May-15 07:00N 41°38' E 141°11'510.9
2018-May-15 06:30N 41°38' E 141°18'510.1
2018-May-15 05:59N 41°38' E 141°25'5 9.8
2018-May-15 05:30N 41°35' E 141°30'5 9.3
2018-May-15 04:59N 41°32' E 141°35'510.3
2018-May-15 04:27N 41°28' E 141°40'510.8
2018-May-15 04:00N 41°24' E 141°42'  
Track history (hours):
 
Tides and Currents Weather Stations Pressure Air Temp Water Temp Dewpoint Dewpoint Depression Visibility Wind Speed Wind Dir Waves Ship Positions

K.pluto

Last reported at 2018-May-15 14:17 UTC. Time now 2018-May-23 20:27 UTC.
Position N 41°15' E 139°53'.
Warning: this ship's position is 8 days out of date.

Length 170 m; draft 6.1 m.

Type: Cargo ship. MMSI: 373504000.

Date/timePositionNaut miles runAvg speedWind from/ knotsBaromVisibWave heightAir tempDewpointWater temp
2018-May-15 14:17N 41°15' E 139°53'311.1
2018-May-15 14:00N 41°14' E 139°57'7 9.8
2018-May-15 13:17N 41°16' E 140°06'510.2
2018-May-15 12:49N 41°18' E 140°11'410.2
2018-May-15 12:27N 41°21' E 140°15'4 9.2
2018-May-15 11:59N 41°23' E 140°20'4 8.8
2018-May-15 11:30N 41°25' E 140°25'4 7.8
2018-May-15 11:00N 41°27' E 140°29'4 7.3
2018-May-15 10:30N 41°29' E 140°33'5 9.3
2018-May-15 10:00N 41°32' E 140°38'4 8.7
2018-May-15 09:30N 41°34' E 140°43'4 7.5
2018-May-15 09:00N 41°36' E 140°48'4 8.2
2018-May-15 08:30N 41°38' E 140°53'5 9.0
2018-May-15 08:00N 41°38' E 140°59'4 8.1
2018-May-15 07:30N 41°38' E 141°04'5 9.3
2018-May-15 07:00N 41°38' E 141°11'510.9
2018-May-15 06:30N 41°38' E 141°18'510.1
2018-May-15 05:59N 41°38' E 141°25'5 9.8
2018-May-15 05:30N 41°35' E 141°30'5 9.3
2018-May-15 04:59N 41°32' E 141°35'510.3
2018-May-15 04:27N 41°28' E 141°40'510.8
2018-May-15 04:00N 41°24' E 141°42'  

Dump ship's entire track history